createdAt,value
2022-12-31T00:00:27.004Z,97919.28
2022-12-31T00:03:31.083Z,97922.59
2022-12-31T00:06:35.185Z,97938.75
2022-12-31T00:09:39.228Z,97944.63
2022-12-31T00:12:43.157Z,97928.34
2022-12-31T00:15:47.408Z,97933.16
2022-12-31T00:18:51.700Z,97920.03
2022-12-31T00:21:55.801Z,97929.84
2022-12-31T00:24:59.842Z,97916.50
2022-12-31T00:28:03.561Z,97925.66
2022-12-31T00:31:07.864Z,97930.69
2022-12-31T00:34:12.037Z,97922.53
2022-12-31T00:37:16.231Z,97915.09
2022-12-31T00:40:20.230Z,97919.28
2022-12-31T00:43:24.144Z,97913.19
2022-12-31T00:46:28.286Z,97912.47
2022-12-31T00:49:32.350Z,97908.91
2022-12-31T00:52:36.351Z,97919.94
2022-12-31T00:55:40.387Z,97907.16
2022-12-31T00:58:44.413Z,97898.53
2022-12-31T01:01:48.827Z,97901.81
2022-12-31T01:04:52.887Z,97912.50
2022-12-31T01:07:56.652Z,97928.75
2022-12-31T01:11:00.919Z,97924.03
2022-12-31T01:14:05.246Z,97923.31
2022-12-31T01:17:09.317Z,97907.22
2022-12-31T01:20:13.296Z,97910.16
2022-12-31T01:23:17.322Z,97903.50
2022-12-31T01:26:21.301Z,97915.09
2022-12-31T01:29:25.392Z,97922.28
2022-12-31T01:32:29.307Z,97916.78
2022-12-31T01:35:33.140Z,97914.03
2022-12-31T01:38:37.130Z,97910.44
2022-12-31T01:41:41.135Z,97916.97
2022-12-31T01:44:45.029Z,97911.19
2022-12-31T01:47:50.509Z,97915.50
2022-12-31T01:50:54.301Z,97913.81
2022-12-31T01:53:58.163Z,97918.56
2022-12-31T01:57:02.323Z,97920.75
2022-12-31T02:00:06.406Z,97924.56
2022-12-31T02:03:10.342Z,97929.19
2022-12-31T02:06:14.303Z,97931.94
2022-12-31T02:09:18.205Z,97941.31
2022-12-31T02:12:22.270Z,97936.91
2022-12-31T02:15:26.504Z,97939.53
2022-12-31T02:18:30.164Z,97931.66
2022-12-31T02:21:37.350Z,97924.78
2022-12-31T02:24:41.408Z,97910.16
2022-12-31T02:27:45.415Z,97916.72
2022-12-31T02:30:49.545Z,97928.53
2022-12-31T02:33:53.268Z,97932.59
2022-12-31T02:36:57.239Z,97929.97
2022-12-31T02:40:01.138Z,97937.44
2022-12-31T02:43:05.355Z,97939.22
2022-12-31T02:46:09.653Z,97935.25
2022-12-31T02:49:13.819Z,97941.38
2022-12-31T02:52:17.823Z,97924.56
2022-12-31T02:55:21.598Z,97932.84
2022-12-31T02:58:25.690Z,97923.56
2022-12-31T03:01:29.731Z,97917.75
2022-12-31T03:04:33.669Z,97922.81
2022-12-31T03:07:37.703Z,97930.44
2022-12-31T03:10:41.829Z,97923.69
2022-12-31T03:13:45.935Z,97937.56
2022-12-31T03:16:49.715Z,97934.78
2022-12-31T03:19:53.836Z,97921.28
2022-12-31T03:22:57.891Z,97927.63
2022-12-31T03:26:01.805Z,97920.97
2022-12-31T03:29:05.735Z,97919.38
2022-12-31T03:32:09.799Z,97921.28
2022-12-31T03:35:14.677Z,97916.50
2022-12-31T03:38:18.729Z,97918.72
2022-12-31T03:41:22.987Z,97910.03
2022-12-31T03:44:26.932Z,97918.94
2022-12-31T03:47:31.024Z,97914.97
2022-12-31T03:50:34.790Z,97918.34
2022-12-31T03:53:38.768Z,97920.75
2022-12-31T03:56:42.736Z,97913.50
2022-12-31T03:59:46.692Z,97918.63
2022-12-31T04:02:50.844Z,97932.75
2022-12-31T04:05:55.082Z,97929.66
2022-12-31T04:08:58.732Z,97929.00
2022-12-31T04:12:02.669Z,97931.91
2022-12-31T04:15:06.796Z,97929.66
2022-12-31T04:18:11.222Z,97923.59
2022-12-31T04:21:15.494Z,97917.91
2022-12-31T04:24:19.672Z,97916.28
2022-12-31T04:27:23.850Z,97912.84
2022-12-31T04:30:27.496Z,97926.38
2022-12-31T04:33:31.638Z,97917.91
2022-12-31T04:36:35.919Z,97929.31
2022-12-31T04:39:39.867Z,97942.78
2022-12-31T04:42:43.750Z,97937.44
2022-12-31T04:45:47.928Z,97928.31
2022-12-31T04:48:52.180Z,97938.97
2022-12-31T04:51:56.053Z,97940.88
2022-12-31T04:54:59.895Z,97930.38
2022-12-31T04:58:05.895Z,97927.97
2022-12-31T05:01:09.968Z,97923.25
2022-12-31T05:04:14.123Z,97926.88
2022-12-31T05:07:18.730Z,97931.56
2022-12-31T05:10:22.749Z,97938.88
2022-12-31T05:13:32.778Z,97923.88
2022-12-31T05:16:37.207Z,97924.94
2022-12-31T05:19:41.318Z,97932.59
2022-12-31T05:22:45.539Z,97937.13
2022-12-31T05:25:49.772Z,97932.72
2022-12-31T05:28:53.743Z,97930.25
2022-12-31T05:31:57.891Z,97937.47
2022-12-31T05:35:01.564Z,97924.13
2022-12-31T05:38:05.807Z,97918.69
2022-12-31T05:41:09.860Z,97918.16
2022-12-31T05:44:14.473Z,97934.91
2022-12-31T05:47:18.075Z,97936.91
2022-12-31T05:50:22.052Z,97944.75
2022-12-31T05:53:26.133Z,97944.38
2022-12-31T05:56:30.079Z,97939.38
2022-12-31T05:59:33.952Z,97943.59
2022-12-31T06:02:38.513Z,97939.69
2022-12-31T06:05:42.579Z,97946.03
2022-12-31T06:08:46.558Z,97951.03
2022-12-31T06:11:50.628Z,97949.16
2022-12-31T06:14:54.718Z,97955.91
2022-12-31T06:17:58.771Z,97953.28
2022-12-31T06:21:02.859Z,97939.59
2022-12-31T06:24:07.054Z,97951.63
2022-12-31T06:27:11.256Z,97953.78
2022-12-31T06:30:14.923Z,97948.66
2022-12-31T06:33:19.207Z,97946.41
2022-12-31T06:36:23.231Z,97946.34
2022-12-31T06:39:27.167Z,97947.03
2022-12-31T06:42:31.043Z,97955.63
2022-12-31T06:45:35.252Z,97963.81
2022-12-31T06:48:39.299Z,97964.75
2022-12-31T06:51:43.403Z,97958.59
2022-12-31T06:54:48.630Z,97971.34
2022-12-31T06:57:54.549Z,97966.00
2022-12-31T07:00:59.008Z,97966.25
2022-12-31T07:04:03.164Z,97960.44
2022-12-31T07:07:07.354Z,97961.31
2022-12-31T07:10:11.296Z,97971.78
2022-12-31T07:13:15.252Z,97963.56
2022-12-31T07:16:19.167Z,97961.09
2022-12-31T07:19:23.315Z,97962.56
2022-12-31T07:22:27.240Z,97963.25
2022-12-31T07:25:34.203Z,97967.69
2022-12-31T07:28:37.988Z,97962.47
2022-12-31T07:31:41.913Z,97965.53
2022-12-31T07:34:46.274Z,97977.84
2022-12-31T07:37:50.181Z,97977.34
2022-12-31T07:40:54.160Z,97975.41
2022-12-31T07:43:58.130Z,97984.22
2022-12-31T07:47:02.385Z,97989.09
2022-12-31T07:50:06.637Z,97988.09
2022-12-31T07:53:11.048Z,97989.94
2022-12-31T07:56:15.053Z,97983.47
2022-12-31T07:59:24.399Z,97991.13
2022-12-31T08:02:28.632Z,97990.69
2022-12-31T08:05:32.635Z,97984.50
2022-12-31T08:08:36.811Z,97968.59
2022-12-31T08:11:40.997Z,97979.03
2022-12-31T08:14:44.899Z,97975.34
2022-12-31T08:17:48.908Z,97977.69
2022-12-31T08:20:53.135Z,97973.41
2022-12-31T08:23:57.892Z,97977.66
2022-12-31T08:27:01.705Z,97975.59
2022-12-31T08:30:05.658Z,97979.06
2022-12-31T08:33:09.741Z,97976.34
2022-12-31T08:36:14.822Z,97980.75
2022-12-31T08:39:20.068Z,97997.28
2022-12-31T08:42:24.456Z,97992.78
2022-12-31T08:45:28.474Z,98002.13
2022-12-31T08:48:32.304Z,98001.75
2022-12-31T08:51:36.526Z,97997.78
2022-12-31T08:54:40.693Z,98006.34
2022-12-31T08:57:47.607Z,97988.78
2022-12-31T09:00:51.737Z,97996.09
2022-12-31T09:03:55.743Z,98001.75
2022-12-31T09:06:59.694Z,98001.91
2022-12-31T09:10:03.497Z,98002.56
2022-12-31T09:13:09.217Z,98000.44
2022-12-31T09:16:13.297Z,97997.94
2022-12-31T09:19:17.271Z,97996.59
2022-12-31T09:22:21.342Z,97992.00
2022-12-31T09:25:25.601Z,98004.94
2022-12-31T09:28:29.690Z,97998.41
2022-12-31T09:31:33.589Z,97997.53
2022-12-31T09:34:37.502Z,97996.84
2022-12-31T09:37:41.552Z,97998.13
2022-12-31T09:40:45.428Z,97985.94
2022-12-31T09:43:57.347Z,97993.75
2022-12-31T09:47:05.132Z,97985.50
2022-12-31T09:50:09.173Z,97990.28
2022-12-31T09:53:13.316Z,97984.56
2022-12-31T09:56:35.591Z,97991.22
2022-12-31T09:59:39.546Z,97970.16
2022-12-31T10:02:46.209Z,97971.78
2022-12-31T10:05:50.116Z,97965.75
2022-12-31T10:08:54.228Z,97962.63
2022-12-31T10:11:58.470Z,97958.59
2022-12-31T10:15:02.113Z,97965.94
2022-12-31T10:18:06.218Z,97952.91
2022-12-31T10:21:10.548Z,97937.03
2022-12-31T10:24:15.732Z,97938.19
2022-12-31T10:27:19.778Z,97941.75
2022-12-31T10:30:23.527Z,97929.25
2022-12-31T10:33:27.472Z,97940.06
2022-12-31T10:36:31.785Z,97940.19
2022-12-31T10:39:35.663Z,97936.31
2022-12-31T10:42:39.807Z,97929.06
2022-12-31T10:45:45.285Z,97936.50
2022-12-31T10:48:49.438Z,97926.53
2022-12-31T10:51:53.379Z,97917.91
2022-12-31T10:54:57.396Z,97915.13
2022-12-31T10:58:04.351Z,97907.06
2022-12-31T11:01:08.981Z,97916.19
2022-12-31T11:04:15.768Z,97906.44
2022-12-31T11:07:19.521Z,97902.00
2022-12-31T11:10:23.480Z,97899.59
2022-12-31T11:13:27.691Z,97900.59
2022-12-31T11:16:31.923Z,97891.63
2022-12-31T11:19:36.018Z,97890.34
2022-12-31T11:22:40.519Z,97878.81
2022-12-31T11:25:44.660Z,97892.00
2022-12-31T11:28:48.705Z,97882.66
2022-12-31T11:31:53.336Z,97873.41
2022-12-31T11:34:57.125Z,97863.88
2022-12-31T11:38:00.783Z,97858.94
2022-12-31T11:41:05.126Z,97854.91
2022-12-31T11:44:09.022Z,97842.91
2022-12-31T11:47:13.158Z,97841.19
2022-12-31T11:50:16.884Z,97831.44
2022-12-31T11:53:21.595Z,97837.88
2022-12-31T11:56:25.516Z,97834.81
2022-12-31T11:59:29.270Z,97817.63
2022-12-31T12:02:33.349Z,97821.31
2022-12-31T12:05:37.801Z,97812.38
2022-12-31T12:08:41.571Z,97803.63
2022-12-31T12:11:45.439Z,97802.22
2022-12-31T12:14:49.724Z,97803.38
2022-12-31T12:17:53.770Z,97807.06
2022-12-31T12:20:57.330Z,97807.09
2022-12-31T12:24:01.643Z,97787.91
2022-12-31T12:27:05.482Z,97791.94
2022-12-31T12:30:09.280Z,97790.47
2022-12-31T12:33:13.528Z,97789.28
2022-12-31T12:36:17.811Z,97780.91
2022-12-31T12:39:22.842Z,97789.91
2022-12-31T12:42:26.703Z,97794.38
2022-12-31T12:45:30.573Z,97782.41
2022-12-31T12:48:37.583Z,97790.59
2022-12-31T12:51:41.933Z,97787.25
2022-12-31T12:54:46.519Z,97786.56
2022-12-31T12:57:50.715Z,97785.41
2022-12-31T13:00:54.649Z,97791.56
2022-12-31T13:04:33.102Z,97786.97
2022-12-31T13:07:23.106Z,97788.22
2022-12-31T13:10:27.782Z,97787.88
2022-12-31T13:13:31.811Z,97786.47
2022-12-31T13:16:36.071Z,97787.03
2022-12-31T13:19:39.901Z,97789.59
2022-12-31T13:22:43.874Z,97786.03
2022-12-31T13:25:47.859Z,97786.22
2022-12-31T13:28:55.309Z,97784.72
2022-12-31T13:31:59.558Z,97798.81
2022-12-31T13:35:07.960Z,97789.53
2022-12-31T13:38:13.171Z,97800.69
2022-12-31T13:41:17.506Z,97797.47
2022-12-31T13:44:21.679Z,97799.28
2022-12-31T13:47:25.618Z,97796.50
2022-12-31T13:50:29.959Z,97800.03
2022-12-31T13:53:34.254Z,97803.47
2022-12-31T13:56:38.055Z,97791.03
2022-12-31T13:59:41.918Z,97799.91
2022-12-31T14:02:46.189Z,97810.69
2022-12-31T14:05:50.318Z,97810.25
2022-12-31T14:08:54.700Z,97814.81
2022-12-31T14:11:58.656Z,97805.47
2022-12-31T14:15:02.474Z,97810.97
2022-12-31T14:18:06.397Z,97812.84
2022-12-31T14:21:10.378Z,97813.75
2022-12-31T14:24:14.402Z,97810.84
2022-12-31T14:27:18.296Z,97815.72
2022-12-31T14:30:22.174Z,97811.78
2022-12-31T14:33:26.397Z,97813.91
2022-12-31T14:36:31.875Z,97816.81
2022-12-31T14:39:35.838Z,97814.44
2022-12-31T14:42:41.250Z,97831.44
2022-12-31T14:45:46.700Z,97827.69
2022-12-31T14:48:50.979Z,97835.69
2022-12-31T14:51:55.294Z,97821.75
2022-12-31T14:54:59.438Z,97821.00
2022-12-31T15:01:28.121Z,97825.03
2022-12-31T15:04:32.279Z,97830.09
2022-12-31T15:07:36.715Z,97833.97
2022-12-31T15:10:40.603Z,97841.25
2022-12-31T15:13:44.520Z,97840.94
2022-12-31T15:16:48.561Z,97855.03
2022-12-31T15:19:52.724Z,97851.72
2022-12-31T15:22:57.600Z,97848.28
2022-12-31T15:26:01.428Z,97840.53
2022-12-31T15:29:05.182Z,97828.72
2022-12-31T15:32:10.266Z,97834.84
2022-12-31T15:35:14.179Z,97832.56
2022-12-31T15:38:18.591Z,97844.53
2022-12-31T15:41:22.856Z,97847.28
2022-12-31T15:44:26.821Z,97846.78
2022-12-31T15:47:30.732Z,97840.97
2022-12-31T15:50:34.777Z,97854.81
2022-12-31T15:53:38.976Z,97853.78
2022-12-31T15:56:42.993Z,97850.06
2022-12-31T16:03:05.191Z,97850.91
2022-12-31T16:06:09.454Z,97853.50
2022-12-31T16:09:13.595Z,97867.22
2022-12-31T16:12:17.403Z,97868.09
2022-12-31T16:15:21.758Z,97867.34
2022-12-31T16:18:25.922Z,97869.38
2022-12-31T16:21:30.315Z,97861.69
2022-12-31T16:24:48.885Z,97870.84
2022-12-31T16:27:58.732Z,97883.50
2022-12-31T16:31:03.110Z,97876.84
2022-12-31T16:34:07.307Z,97882.38
2022-12-31T16:37:11.361Z,97890.34
2022-12-31T16:40:15.581Z,97887.41
2022-12-31T16:43:19.621Z,97889.09
2022-12-31T16:46:23.840Z,97899.53
2022-12-31T16:49:27.671Z,97894.84
2022-12-31T16:52:31.882Z,97893.59
2022-12-31T16:55:36.117Z,97889.59
2022-12-31T16:58:40.234Z,97893.88
2022-12-31T17:01:44.394Z,97902.72
2022-12-31T17:04:55.340Z,97904.59
2022-12-31T17:08:00.077Z,97911.94
2022-12-31T17:11:04.216Z,97909.31
2022-12-31T17:14:08.252Z,97901.28
2022-12-31T17:17:12.194Z,97912.28
2022-12-31T17:20:16.139Z,97920.78
2022-12-31T17:23:20.081Z,97907.13
2022-12-31T17:26:25.308Z,97911.72
2022-12-31T17:29:29.708Z,97920.31
2022-12-31T17:32:33.861Z,97921.56
2022-12-31T17:35:37.739Z,97929.75
2022-12-31T17:38:41.705Z,97928.97
2022-12-31T17:41:46.101Z,97929.28
2022-12-31T17:44:50.352Z,97927.22
2022-12-31T17:47:54.237Z,97924.09
2022-12-31T17:51:00.442Z,97926.06
2022-12-31T17:54:04.716Z,97922.25
2022-12-31T17:57:08.605Z,97915.44
2022-12-31T18:00:12.835Z,97915.34
2022-12-31T18:03:16.916Z,97917.50
2022-12-31T18:06:20.968Z,97913.72
2022-12-31T18:09:24.817Z,97912.63
2022-12-31T18:12:28.927Z,97921.59
2022-12-31T18:15:32.872Z,97915.28
2022-12-31T18:18:36.693Z,97913.66
2022-12-31T18:21:40.813Z,97916.78
2022-12-31T18:24:45.045Z,97921.31
2022-12-31T18:27:48.973Z,97920.09
2022-12-31T18:30:53.077Z,97912.53
2022-12-31T18:33:56.976Z,97913.13
2022-12-31T18:37:00.624Z,97913.66
2022-12-31T18:40:04.932Z,97909.44
2022-12-31T18:43:09.016Z,97923.66
2022-12-31T18:46:13.109Z,97921.28
2022-12-31T18:49:17.151Z,97927.22
2022-12-31T18:52:21.441Z,97925.97
2022-12-31T18:55:25.671Z,97931.47
2022-12-31T18:58:29.581Z,97925.63
2022-12-31T19:01:33.502Z,97925.84
2022-12-31T19:04:37.509Z,97933.66
2022-12-31T19:07:41.677Z,97935.69
2022-12-31T19:10:45.769Z,97934.78
2022-12-31T19:13:49.764Z,97939.50
2022-12-31T19:16:55.407Z,97934.09
2022-12-31T19:19:59.399Z,97932.31
2022-12-31T19:23:03.479Z,97934.53
2022-12-31T19:26:07.637Z,97928.56
2022-12-31T19:29:11.701Z,97931.59
2022-12-31T19:32:15.625Z,97930.75
2022-12-31T19:35:19.818Z,97931.03
2022-12-31T19:38:23.917Z,97930.19
2022-12-31T19:41:28.063Z,97929.38
2022-12-31T19:44:32.093Z,97938.41
2022-12-31T19:47:36.146Z,97940.63
2022-12-31T19:50:40.079Z,97944.50
2022-12-31T19:53:44.561Z,97950.31
2022-12-31T19:56:48.622Z,97947.97
2022-12-31T19:59:52.666Z,97948.03
2022-12-31T20:02:56.853Z,97955.28
2022-12-31T20:06:00.770Z,97958.50
2022-12-31T20:09:04.931Z,97958.41
2022-12-31T20:12:08.841Z,97959.75
2022-12-31T20:15:12.935Z,97967.59
2022-12-31T20:18:16.814Z,97982.44
2022-12-31T20:21:20.937Z,97966.84
2022-12-31T20:24:25.181Z,97977.75
2022-12-31T20:27:29.685Z,97986.00
2022-12-31T20:30:33.573Z,97993.44
2022-12-31T20:33:37.837Z,97996.56
2022-12-31T20:36:44.044Z,97990.44
2022-12-31T20:39:48.074Z,97999.41
2022-12-31T20:42:52.019Z,97992.81
2022-12-31T20:45:55.997Z,97992.91
2022-12-31T20:49:00.232Z,97994.19
2022-12-31T20:52:04.342Z,97997.59
2022-12-31T20:55:08.856Z,97990.94
2022-12-31T20:58:12.536Z,97991.56
2022-12-31T21:01:17.110Z,97999.88
2022-12-31T21:04:21.919Z,97988.25
2022-12-31T21:07:25.892Z,98004.56
2022-12-31T21:10:29.762Z,98001.25
2022-12-31T21:13:33.666Z,98012.72
2022-12-31T21:16:37.782Z,98009.97
2022-12-31T21:19:41.920Z,98005.94
2022-12-31T21:22:46.309Z,97999.16
2022-12-31T21:25:50.175Z,98004.19
2022-12-31T21:28:53.977Z,98002.53
2022-12-31T21:31:57.856Z,98014.50
2022-12-31T21:35:40.364Z,98011.13
2022-12-31T21:38:26.454Z,98010.09
2022-12-31T21:41:33.518Z,98009.16
2022-12-31T21:44:37.936Z,98016.19
2022-12-31T21:47:47.438Z,98018.19
2022-12-31T21:50:52.087Z,98035.81
2022-12-31T21:53:56.004Z,98031.03
2022-12-31T21:56:59.891Z,98029.22
2022-12-31T22:00:39.499Z,98039.31
2022-12-31T22:03:28.492Z,98043.91
2022-12-31T22:06:32.692Z,98047.13
2022-12-31T22:09:37.149Z,98051.88
2022-12-31T22:12:41.199Z,98053.88
2022-12-31T22:15:45.437Z,98057.53
2022-12-31T22:18:49.516Z,98058.28
2022-12-31T22:21:53.708Z,98055.28
2022-12-31T22:24:59.789Z,98061.50
2022-12-31T22:28:37.035Z,98066.31
2022-12-31T22:31:27.989Z,98064.22
2022-12-31T22:34:32.083Z,98066.19
2022-12-31T22:37:56.497Z,98067.78
2022-12-31T22:40:59.869Z,98071.22
2022-12-31T22:44:04.950Z,98061.84
2022-12-31T22:47:09.203Z,98069.19
2022-12-31T22:50:13.507Z,98073.44
2022-12-31T22:53:17.583Z,98077.97
2022-12-31T22:56:21.626Z,98081.50
2022-12-31T22:59:25.581Z,98088.25
2022-12-31T23:02:29.866Z,98077.16
2022-12-31T23:05:33.641Z,98070.06
2022-12-31T23:08:37.705Z,98074.44
2022-12-31T23:11:41.925Z,98079.59
2022-12-31T23:14:46.028Z,98093.13
2022-12-31T23:17:49.939Z,98085.06
2022-12-31T23:20:53.759Z,98078.56
2022-12-31T23:23:57.707Z,98066.00
2022-12-31T23:27:01.756Z,98055.31
2022-12-31T23:30:05.784Z,98070.22
2022-12-31T23:33:09.803Z,98070.28
2022-12-31T23:36:13.680Z,98084.97
2022-12-31T23:39:17.577Z,98078.56
2022-12-31T23:42:21.592Z,98082.72
2022-12-31T23:45:31.130Z,98086.84
2022-12-31T23:48:37.053Z,98072.91
2022-12-31T23:51:41.015Z,98075.47
2022-12-31T23:54:45.036Z,98080.31
2022-12-31T23:57:49.097Z,98087.63
